sensor_id;sensor_type;location;lat;lon;timestamp;P1;durP1;ratioP1;P2;durP2;ratioP2
71423;SDS011;59240;51.370;-0.486;2023-09-18T00:01:21;6.80;;;1.88;;
71423;SDS011;59240;51.370;-0.486;2023-09-18T00:06:18;9.82;;;2.08;;
71423;SDS011;59240;51.370;-0.486;2023-09-18T00:11:16;3.60;;;1.80;;
71423;SDS011;59240;51.370;-0.486;2023-09-18T00:16:12;7.43;;;2.30;;
71423;SDS011;59240;51.370;-0.486;2023-09-18T00:21:10;5.05;;;1.63;;
71423;SDS011;59240;51.370;-0.486;2023-09-18T00:26:07;4.53;;;1.58;;
71423;SDS011;59240;51.370;-0.486;2023-09-18T00:31:04;2.38;;;1.13;;
71423;SDS011;59240;51.370;-0.486;2023-09-18T00:36:01;2.08;;;1.08;;
71423;SDS011;59240;51.370;-0.486;2023-09-18T00:40:58;2.97;;;1.35;;
71423;SDS011;59240;51.370;-0.486;2023-09-18T00:45:55;1.95;;;1.20;;
71423;SDS011;59240;51.370;-0.486;2023-09-18T00:50:52;1.55;;;1.02;;
71423;SDS011;59240;51.370;-0.486;2023-09-18T00:55:50;3.75;;;1.65;;
71423;SDS011;59240;51.370;-0.486;2023-09-18T01:00:52;3.33;;;1.42;;
71423;SDS011;59240;51.370;-0.486;2023-09-18T01:05:50;5.00;;;1.50;;
71423;SDS011;59240;51.370;-0.486;2023-09-18T01:10:55;3.50;;;1.13;;
71423;SDS011;59240;51.370;-0.486;2023-09-18T01:15:59;4.55;;;1.23;;
71423;SDS011;59240;51.370;-0.486;2023-09-18T01:21:02;2.35;;;1.10;;
71423;SDS011;59240;51.370;-0.486;2023-09-18T01:25:58;3.30;;;1.50;;
71423;SDS011;59240;51.370;-0.486;2023-09-18T01:30:55;5.65;;;1.25;;
71423;SDS011;59240;51.370;-0.486;2023-09-18T01:35:52;4.78;;;1.08;;
71423;SDS011;59240;51.370;-0.486;2023-09-18T01:40:52;5.13;;;1.20;;
71423;SDS011;59240;51.370;-0.486;2023-09-18T01:45:50;3.83;;;1.40;;
71423;SDS011;59240;51.370;-0.486;2023-09-18T01:50:48;3.17;;;1.00;;
71423;SDS011;59240;51.370;-0.486;2023-09-18T01:55:45;3.63;;;1.48;;
71423;SDS011;59240;51.370;-0.486;2023-09-18T02:00:41;5.47;;;1.60;;
71423;SDS011;59240;51.370;-0.486;2023-09-18T02:05:39;3.47;;;1.60;;
71423;SDS011;59240;51.370;-0.486;2023-09-18T02:10:38;5.05;;;1.67;;
71423;SDS011;59240;51.370;-0.486;2023-09-18T02:15:36;6.55;;;1.95;;
71423;SDS011;59240;51.370;-0.486;2023-09-18T02:20:39;9.30;;;1.63;;
71423;SDS011;59240;51.370;-0.486;2023-09-18T02:25:37;4.03;;;1.40;;
71423;SDS011;59240;51.370;-0.486;2023-09-18T02:30:34;11.45;;;2.15;;
71423;SDS011;59240;51.370;-0.486;2023-09-18T02:35:30;10.85;;;2.00;;
71423;SDS011;59240;51.370;-0.486;2023-09-18T02:40:27;10.15;;;1.65;;
71423;SDS011;59240;51.370;-0.486;2023-09-18T02:45:24;8.82;;;2.10;;
71423;SDS011;59240;51.370;-0.486;2023-09-18T02:50:21;10.18;;;1.85;;
71423;SDS011;59240;51.370;-0.486;2023-09-18T02:55:18;12.18;;;2.10;;
71423;SDS011;59240;51.370;-0.486;2023-09-18T03:00:15;10.45;;;2.28;;
71423;SDS011;59240;51.370;-0.486;2023-09-18T03:05:12;6.82;;;1.75;;
71423;SDS011;59240;51.370;-0.486;2023-09-18T03:10:09;7.68;;;2.38;;
71423;SDS011;59240;51.370;-0.486;2023-09-18T03:15:09;8.80;;;2.10;;
71423;SDS011;59240;51.370;-0.486;2023-09-18T03:20:08;7.70;;;2.47;;
71423;SDS011;59240;51.370;-0.486;2023-09-18T03:25:06;10.38;;;2.80;;
71423;SDS011;59240;51.370;-0.486;2023-09-18T03:30:03;10.00;;;2.45;;
71423;SDS011;59240;51.370;-0.486;2023-09-18T03:35:00;6.40;;;2.47;;
71423;SDS011;59240;51.370;-0.486;2023-09-18T03:39:57;13.35;;;1.92;;
71423;SDS011;59240;51.370;-0.486;2023-09-18T03:44:54;12.02;;;2.58;;
71423;SDS011;59240;51.370;-0.486;2023-09-18T03:49:51;7.95;;;2.72;;
71423;SDS011;59240;51.370;-0.486;2023-09-18T03:54:48;14.65;;;2.40;;
71423;SDS011;59240;51.370;-0.486;2023-09-18T03:59:44;12.60;;;2.90;;
71423;SDS011;59240;51.370;-0.486;2023-09-18T04:04:41;14.95;;;2.10;;
71423;SDS011;59240;51.370;-0.486;2023-09-18T04:09:38;9.20;;;2.38;;
71423;SDS011;59240;51.370;-0.486;2023-09-18T04:14:36;10.73;;;2.85;;
71423;SDS011;59240;51.370;-0.486;2023-09-18T04:19:33;13.40;;;2.53;;
71423;SDS011;59240;51.370;-0.486;2023-09-18T04:24:29;16.15;;;2.22;;
71423;SDS011;59240;51.370;-0.486;2023-09-18T04:29:28;13.60;;;2.33;;
71423;SDS011;59240;51.370;-0.486;2023-09-18T04:34:25;14.40;;;2.88;;
71423;SDS011;59240;51.370;-0.486;2023-09-18T04:39:21;14.23;;;2.90;;
71423;SDS011;59240;51.370;-0.486;2023-09-18T04:44:18;10.07;;;3.40;;
71423;SDS011;59240;51.370;-0.486;2023-09-18T04:49:15;9.73;;;2.50;;
71423;SDS011;59240;51.370;-0.486;2023-09-18T04:54:12;16.15;;;4.18;;
71423;SDS011;59240;51.370;-0.486;2023-09-18T04:59:09;13.15;;;3.63;;
71423;SDS011;59240;51.370;-0.486;2023-09-18T05:04:06;11.48;;;4.50;;
71423;SDS011;59240;51.370;-0.486;2023-09-18T05:09:03;10.45;;;4.35;;
71423;SDS011;59240;51.370;-0.486;2023-09-18T05:14:00;14.45;;;4.90;;
71423;SDS011;59240;51.370;-0.486;2023-09-18T05:18:57;13.82;;;5.03;;
71423;SDS011;59240;51.370;-0.486;2023-09-18T05:23:54;15.85;;;5.25;;
71423;SDS011;59240;51.370;-0.486;2023-09-18T05:28:51;13.20;;;5.93;;
71423;SDS011;59240;51.370;-0.486;2023-09-18T05:33:48;15.32;;;5.45;;
71423;SDS011;59240;51.370;-0.486;2023-09-18T05:38:45;14.93;;;5.55;;
71423;SDS011;59240;51.370;-0.486;2023-09-18T05:43:41;13.50;;;5.53;;
71423;SDS011;59240;51.370;-0.486;2023-09-18T05:48:38;12.25;;;5.63;;
71423;SDS011;59240;51.370;-0.486;2023-09-18T05:53:35;10.70;;;5.38;;
71423;SDS011;59240;51.370;-0.486;2023-09-18T05:58:32;17.00;;;5.85;;
71423;SDS011;59240;51.370;-0.486;2023-09-18T06:03:29;17.98;;;6.32;;
71423;SDS011;59240;51.370;-0.486;2023-09-18T06:08:32;15.85;;;6.50;;
71423;SDS011;59240;51.370;-0.486;2023-09-18T06:13:30;17.75;;;6.13;;
71423;SDS011;59240;51.370;-0.486;2023-09-18T06:18:27;15.65;;;6.30;;
71423;SDS011;59240;51.370;-0.486;2023-09-18T06:23:23;12.80;;;6.22;;
71423;SDS011;59240;51.370;-0.486;2023-09-18T06:28:20;12.50;;;6.70;;
71423;SDS011;59240;51.370;-0.486;2023-09-18T06:33:17;11.70;;;6.03;;
71423;SDS011;59240;51.370;-0.486;2023-09-18T06:38:14;13.10;;;6.25;;
71423;SDS011;59240;51.370;-0.486;2023-09-18T06:43:11;12.40;;;6.30;;
71423;SDS011;59240;51.370;-0.486;2023-09-18T06:48:08;12.93;;;6.28;;
71423;SDS011;59240;51.370;-0.486;2023-09-18T06:53:05;10.18;;;6.28;;
71423;SDS011;59240;51.370;-0.486;2023-09-18T06:58:02;16.27;;;6.00;;
71423;SDS011;59240;51.370;-0.486;2023-09-18T07:03:00;15.25;;;6.10;;
71423;SDS011;59240;51.370;-0.486;2023-09-18T07:07:59;9.30;;;5.32;;
71423;SDS011;59240;51.370;-0.486;2023-09-18T07:12:56;11.60;;;5.38;;
71423;SDS011;59240;51.370;-0.486;2023-09-18T07:17:54;13.15;;;5.55;;
71423;SDS011;59240;51.370;-0.486;2023-09-18T07:22:51;11.32;;;5.30;;
71423;SDS011;59240;51.370;-0.486;2023-09-18T07:27:48;10.30;;;5.47;;
71423;SDS011;59240;51.370;-0.486;2023-09-18T07:32:45;12.02;;;5.57;;
71423;SDS011;59240;51.370;-0.486;2023-09-18T07:37:43;9.45;;;4.80;;
71423;SDS011;59240;51.370;-0.486;2023-09-18T07:42:41;12.50;;;4.30;;
71423;SDS011;59240;51.370;-0.486;2023-09-18T07:47:40;8.40;;;4.28;;
71423;SDS011;59240;51.370;-0.486;2023-09-18T07:52:37;10.10;;;3.42;;
71423;SDS011;59240;51.370;-0.486;2023-09-18T07:57:34;9.05;;;3.60;;
71423;SDS011;59240;51.370;-0.486;2023-09-18T08:02:31;8.40;;;3.17;;
71423;SDS011;59240;51.370;-0.486;2023-09-18T08:07:28;9.00;;;3.67;;
71423;SDS011;59240;51.370;-0.486;2023-09-18T08:12:25;7.38;;;3.33;;
71423;SDS011;59240;51.370;-0.486;2023-09-18T08:17:22;6.68;;;3.03;;
71423;SDS011;59240;51.370;-0.486;2023-09-18T08:22:19;7.13;;;3.67;;
71423;SDS011;59240;51.370;-0.486;2023-09-18T08:27:17;8.07;;;2.92;;
71423;SDS011;59240;51.370;-0.486;2023-09-18T08:32:15;5.88;;;3.17;;
71423;SDS011;59240;51.370;-0.486;2023-09-18T08:37:12;8.18;;;2.92;;
71423;SDS011;59240;51.370;-0.486;2023-09-18T08:42:09;5.18;;;3.20;;
71423;SDS011;59240;51.370;-0.486;2023-09-18T08:47:07;5.50;;;2.58;;
71423;SDS011;59240;51.370;-0.486;2023-09-18T08:52:07;5.55;;;3.15;;
71423;SDS011;59240;51.370;-0.486;2023-09-18T08:57:04;9.80;;;2.92;;
71423;SDS011;59240;51.370;-0.486;2023-09-18T09:02:04;6.97;;;2.47;;
71423;SDS011;59240;51.370;-0.486;2023-09-18T09:07:01;5.95;;;2.10;;
71423;SDS011;59240;51.370;-0.486;2023-09-18T09:11:59;5.75;;;2.33;;
71423;SDS011;59240;51.370;-0.486;2023-09-18T09:16:56;5.70;;;2.83;;
71423;SDS011;59240;51.370;-0.486;2023-09-18T09:21:54;3.55;;;1.75;;
71423;SDS011;59240;51.370;-0.486;2023-09-18T09:26:58;6.43;;;2.55;;
71423;SDS011;59240;51.370;-0.486;2023-09-18T09:31:55;4.50;;;1.80;;
71423;SDS011;59240;51.370;-0.486;2023-09-18T09:36:55;5.68;;;1.30;;
71423;SDS011;59240;51.370;-0.486;2023-09-18T09:41:52;5.68;;;1.88;;
71423;SDS011;59240;51.370;-0.486;2023-09-18T09:46:50;5.90;;;1.67;;
71423;SDS011;59240;51.370;-0.486;2023-09-18T09:51:47;2.47;;;1.38;;
71423;SDS011;59240;51.370;-0.486;2023-09-18T09:56:45;4.65;;;1.60;;
71423;SDS011;59240;51.370;-0.486;2023-09-18T10:01:48;4.50;;;1.08;;
71423;SDS011;59240;51.370;-0.486;2023-09-18T10:06:51;6.07;;;1.98;;
71423;SDS011;59240;51.370;-0.486;2023-09-18T10:11:52;3.13;;;1.08;;
71423;SDS011;59240;51.370;-0.486;2023-09-18T10:16:53;4.30;;;1.25;;
71423;SDS011;59240;51.370;-0.486;2023-09-18T10:22:30;3.28;;;1.20;;
71423;SDS011;59240;51.370;-0.486;2023-09-18T10:27:19;3.33;;;1.83;;
71423;SDS011;59240;51.370;-0.486;2023-09-18T10:32:19;4.88;;;1.33;;
71423;SDS011;59240;51.370;-0.486;2023-09-18T10:37:19;2.92;;;1.35;;
71423;SDS011;59240;51.370;-0.486;2023-09-18T10:42:18;3.88;;;1.45;;
71423;SDS011;59240;51.370;-0.486;2023-09-18T10:47:17;1.02;;;0.57;;
71423;SDS011;59240;51.370;-0.486;2023-09-18T10:52:14;3.38;;;1.00;;
71423;SDS011;59240;51.370;-0.486;2023-09-18T10:57:11;3.92;;;0.85;;
71423;SDS011;59240;51.370;-0.486;2023-09-18T11:02:09;1.83;;;0.98;;
71423;SDS011;59240;51.370;-0.486;2023-09-18T11:07:06;1.17;;;0.73;;
71423;SDS011;59240;51.370;-0.486;2023-09-18T11:12:04;1.67;;;0.70;;
71423;SDS011;59240;51.370;-0.486;2023-09-18T11:17:02;2.13;;;1.00;;
71423;SDS011;59240;51.370;-0.486;2023-09-18T11:22:06;2.58;;;0.70;;
71423;SDS011;59240;51.370;-0.486;2023-09-18T11:27:04;3.97;;;1.08;;
71423;SDS011;59240;51.370;-0.486;2023-09-18T11:32:01;3.97;;;1.15;;
71423;SDS011;59240;51.370;-0.486;2023-09-18T11:37:01;5.15;;;1.52;;
71423;SDS011;59240;51.370;-0.486;2023-09-18T11:42:10;3.88;;;1.80;;
71423;SDS011;59240;51.370;-0.486;2023-09-18T11:47:08;3.40;;;1.70;;
71423;SDS011;59240;51.370;-0.486;2023-09-18T11:52:13;4.18;;;1.77;;
71423;SDS011;59240;51.370;-0.486;2023-09-18T11:57:10;4.25;;;1.70;;
71423;SDS011;59240;51.370;-0.486;2023-09-18T12:02:07;1.80;;;1.02;;
71423;SDS011;59240;51.370;-0.486;2023-09-18T12:07:04;4.20;;;1.75;;
71423;SDS011;59240;51.370;-0.486;2023-09-18T12:12:04;3.17;;;1.17;;
71423;SDS011;59240;51.370;-0.486;2023-09-18T12:17:03;1.73;;;1.30;;
71423;SDS011;59240;51.370;-0.486;2023-09-18T12:22:01;3.97;;;1.80;;
71423;SDS011;59240;51.370;-0.486;2023-09-18T12:26:58;3.03;;;1.30;;
71423;SDS011;59240;51.370;-0.486;2023-09-18T12:31:55;2.72;;;1.35;;
71423;SDS011;59240;51.370;-0.486;2023-09-18T12:36:52;2.75;;;1.00;;
71423;SDS011;59240;51.370;-0.486;2023-09-18T12:41:49;0.80;;;0.50;;
71423;SDS011;59240;51.370;-0.486;2023-09-18T12:46:47;3.95;;;1.25;;
71423;SDS011;59240;51.370;-0.486;2023-09-18T12:52:00;1.55;;;1.00;;
71423;SDS011;59240;51.370;-0.486;2023-09-18T12:57:04;2.15;;;0.88;;
71423;SDS011;59240;51.370;-0.486;2023-09-18T13:02:02;2.22;;;1.30;;
71423;SDS011;59240;51.370;-0.486;2023-09-18T13:07:08;1.45;;;1.15;;
71423;SDS011;59240;51.370;-0.486;2023-09-18T13:12:07;2.10;;;1.60;;
71423;SDS011;59240;51.370;-0.486;2023-09-18T13:17:05;2.33;;;1.77;;
71423;SDS011;59240;51.370;-0.486;2023-09-18T13:22:02;7.00;;;1.80;;
71423;SDS011;59240;51.370;-0.486;2023-09-18T13:27:01;2.15;;;1.40;;
71423;SDS011;59240;51.370;-0.486;2023-09-18T13:31:58;3.47;;;1.60;;
71423;SDS011;59240;51.370;-0.486;2023-09-18T13:36:56;1.92;;;1.20;;
71423;SDS011;59240;51.370;-0.486;2023-09-18T13:41:53;1.65;;;1.40;;
71423;SDS011;59240;51.370;-0.486;2023-09-18T13:46:50;2.22;;;1.20;;
71423;SDS011;59240;51.370;-0.486;2023-09-18T13:51:47;2.30;;;1.33;;
71423;SDS011;59240;51.370;-0.486;2023-09-18T13:56:44;4.43;;;1.38;;
71423;SDS011;59240;51.370;-0.486;2023-09-18T14:01:41;2.08;;;1.05;;
71423;SDS011;59240;51.370;-0.486;2023-09-18T14:06:37;4.97;;;1.13;;
71423;SDS011;59240;51.370;-0.486;2023-09-18T14:11:35;3.95;;;0.88;;
71423;SDS011;59240;51.370;-0.486;2023-09-18T14:16:34;4.82;;;1.13;;
71423;SDS011;59240;51.370;-0.486;2023-09-18T14:21:31;2.22;;;1.10;;
71423;SDS011;59240;51.370;-0.486;2023-09-18T14:26:30;2.85;;;1.00;;
71423;SDS011;59240;51.370;-0.486;2023-09-18T14:31:27;1.73;;;0.88;;
71423;SDS011;59240;51.370;-0.486;2023-09-18T14:36:23;1.70;;;0.82;;
71423;SDS011;59240;51.370;-0.486;2023-09-18T14:41:20;3.28;;;0.70;;
71423;SDS011;59240;51.370;-0.486;2023-09-18T14:46:18;2.50;;;0.80;;
71423;SDS011;59240;51.370;-0.486;2023-09-18T14:51:15;4.93;;;0.85;;
71423;SDS011;59240;51.370;-0.486;2023-09-18T14:56:12;1.67;;;0.90;;
71423;SDS011;59240;51.370;-0.486;2023-09-18T15:01:09;2.78;;;0.73;;
71423;SDS011;59240;51.370;-0.486;2023-09-18T15:06:09;1.70;;;1.02;;
71423;SDS011;59240;51.370;-0.486;2023-09-18T15:11:06;2.22;;;0.93;;
71423;SDS011;59240;51.370;-0.486;2023-09-18T15:16:03;1.48;;;0.63;;
71423;SDS011;59240;51.370;-0.486;2023-09-18T15:21:02;4.38;;;0.80;;
71423;SDS011;59240;51.370;-0.486;2023-09-18T15:25:59;0.85;;;0.45;;
71423;SDS011;59240;51.370;-0.486;2023-09-18T15:30:55;1.55;;;0.70;;
71423;SDS011;59240;51.370;-0.486;2023-09-18T15:35:53;1.98;;;0.55;;
71423;SDS011;59240;51.370;-0.486;2023-09-18T15:40:50;2.58;;;1.30;;
71423;SDS011;59240;51.370;-0.486;2023-09-18T15:45:47;4.75;;;0.70;;
71423;SDS011;59240;51.370;-0.486;2023-09-18T15:50:44;1.75;;;1.02;;
71423;SDS011;59240;51.370;-0.486;2023-09-18T15:55:41;1.73;;;0.65;;
71423;SDS011;59240;51.370;-0.486;2023-09-18T16:00:38;1.85;;;0.73;;
71423;SDS011;59240;51.370;-0.486;2023-09-18T16:05:35;3.03;;;0.90;;
71423;SDS011;59240;51.370;-0.486;2023-09-18T16:10:32;4.63;;;1.00;;
71423;SDS011;59240;51.370;-0.486;2023-09-18T16:15:29;5.53;;;1.48;;
71423;SDS011;59240;51.370;-0.486;2023-09-18T16:20:26;4.05;;;1.15;;
71423;SDS011;59240;51.370;-0.486;2023-09-18T16:25:23;4.78;;;1.42;;
71423;SDS011;59240;51.370;-0.486;2023-09-18T16:30:19;6.75;;;1.13;;
71423;SDS011;59240;51.370;-0.486;2023-09-18T16:35:16;2.35;;;0.73;;
71423;SDS011;59240;51.370;-0.486;2023-09-18T16:40:13;4.60;;;1.05;;
71423;SDS011;59240;51.370;-0.486;2023-09-18T16:45:10;3.90;;;1.00;;
71423;SDS011;59240;51.370;-0.486;2023-09-18T16:50:07;6.53;;;1.48;;
71423;SDS011;59240;51.370;-0.486;2023-09-18T16:55:04;5.80;;;0.80;;
71423;SDS011;59240;51.370;-0.486;2023-09-18T17:00:02;5.20;;;1.20;;
71423;SDS011;59240;51.370;-0.486;2023-09-18T17:05:02;4.65;;;1.05;;
71423;SDS011;59240;51.370;-0.486;2023-09-18T17:10:01;8.25;;;1.20;;
71423;SDS011;59240;51.370;-0.486;2023-09-18T17:15:00;6.35;;;1.27;;
71423;SDS011;59240;51.370;-0.486;2023-09-18T17:19:57;4.13;;;0.90;;
71423;SDS011;59240;51.370;-0.486;2023-09-18T17:24:54;11.43;;;1.10;;
71423;SDS011;59240;51.370;-0.486;2023-09-18T17:29:51;4.88;;;1.10;;
71423;SDS011;59240;51.370;-0.486;2023-09-18T17:34:48;4.07;;;1.02;;
71423;SDS011;59240;51.370;-0.486;2023-09-18T17:39:46;4.97;;;1.15;;
71423;SDS011;59240;51.370;-0.486;2023-09-18T17:44:43;7.53;;;1.85;;
71423;SDS011;59240;51.370;-0.486;2023-09-18T17:49:40;6.13;;;1.27;;
71423;SDS011;59240;51.370;-0.486;2023-09-18T17:54:38;6.25;;;1.42;;
71423;SDS011;59240;51.370;-0.486;2023-09-18T17:59:35;6.30;;;1.35;;
71423;SDS011;59240;51.370;-0.486;2023-09-18T18:04:32;11.57;;;1.33;;
71423;SDS011;59240;51.370;-0.486;2023-09-18T18:09:31;6.05;;;0.98;;
71423;SDS011;59240;51.370;-0.486;2023-09-18T18:14:28;8.05;;;1.42;;
71423;SDS011;59240;51.370;-0.486;2023-09-18T18:19:25;6.10;;;1.60;;
71423;SDS011;59240;51.370;-0.486;2023-09-18T18:24:22;13.02;;;1.88;;
71423;SDS011;59240;51.370;-0.486;2023-09-18T18:29:19;10.68;;;1.80;;
71423;SDS011;59240;51.370;-0.486;2023-09-18T18:34:16;4.60;;;1.30;;
71423;SDS011;59240;51.370;-0.486;2023-09-18T18:39:14;6.80;;;1.13;;
71423;SDS011;59240;51.370;-0.486;2023-09-18T18:44:12;6.28;;;1.38;;
71423;SDS011;59240;51.370;-0.486;2023-09-18T18:49:09;8.45;;;1.40;;
71423;SDS011;59240;51.370;-0.486;2023-09-18T18:54:06;5.15;;;1.02;;
71423;SDS011;59240;51.370;-0.486;2023-09-18T18:59:04;16.05;;;2.63;;
71423;SDS011;59240;51.370;-0.486;2023-09-18T19:04:01;6.50;;;1.48;;
71423;SDS011;59240;51.370;-0.486;2023-09-18T19:08:58;5.50;;;1.20;;
71423;SDS011;59240;51.370;-0.486;2023-09-18T19:13:56;6.45;;;1.13;;
71423;SDS011;59240;51.370;-0.486;2023-09-18T19:18:52;11.48;;;1.52;;
71423;SDS011;59240;51.370;-0.486;2023-09-18T19:23:49;6.18;;;1.60;;
71423;SDS011;59240;51.370;-0.486;2023-09-18T19:28:46;7.70;;;1.40;;
71423;SDS011;59240;51.370;-0.486;2023-09-18T19:33:44;5.43;;;1.90;;
71423;SDS011;59240;51.370;-0.486;2023-09-18T19:38:41;11.55;;;1.80;;
71423;SDS011;59240;51.370;-0.486;2023-09-18T19:43:38;5.60;;;1.15;;
71423;SDS011;59240;51.370;-0.486;2023-09-18T19:48:35;8.93;;;1.50;;
71423;SDS011;59240;51.370;-0.486;2023-09-18T19:53:33;6.68;;;1.60;;
71423;SDS011;59240;51.370;-0.486;2023-09-18T19:58:30;6.72;;;1.25;;
71423;SDS011;59240;51.370;-0.486;2023-09-18T20:03:28;8.52;;;1.30;;
71423;SDS011;59240;51.370;-0.486;2023-09-18T20:08:25;10.75;;;2.00;;
71423;SDS011;59240;51.370;-0.486;2023-09-18T20:13:23;6.43;;;1.13;;
71423;SDS011;59240;51.370;-0.486;2023-09-18T20:18:20;5.50;;;1.60;;
71423;SDS011;59240;51.370;-0.486;2023-09-18T20:23:17;8.30;;;2.28;;
71423;SDS011;59240;51.370;-0.486;2023-09-18T20:28:15;8.80;;;1.40;;
71423;SDS011;59240;51.370;-0.486;2023-09-18T20:33:11;5.05;;;1.35;;
71423;SDS011;59240;51.370;-0.486;2023-09-18T20:38:11;3.17;;;1.23;;
71423;SDS011;59240;51.370;-0.486;2023-09-18T20:43:10;4.03;;;1.02;;
71423;SDS011;59240;51.370;-0.486;2023-09-18T20:48:10;9.82;;;2.20;;
71423;SDS011;59240;51.370;-0.486;2023-09-18T20:53:08;3.70;;;0.95;;
71423;SDS011;59240;51.370;-0.486;2023-09-18T20:58:08;7.97;;;1.60;;
71423;SDS011;59240;51.370;-0.486;2023-09-18T21:03:05;6.97;;;1.08;;
71423;SDS011;59240;51.370;-0.486;2023-09-18T21:08:02;5.35;;;0.88;;
71423;SDS011;59240;51.370;-0.486;2023-09-18T21:12:59;6.93;;;1.75;;
71423;SDS011;59240;51.370;-0.486;2023-09-18T21:17:56;4.63;;;1.48;;
71423;SDS011;59240;51.370;-0.486;2023-09-18T21:22:53;4.40;;;1.30;;
71423;SDS011;59240;51.370;-0.486;2023-09-18T21:27:55;3.47;;;1.08;;
71423;SDS011;59240;51.370;-0.486;2023-09-18T21:32:57;3.70;;;1.42;;
71423;SDS011;59240;51.370;-0.486;2023-09-18T21:37:54;5.05;;;1.55;;
71423;SDS011;59240;51.370;-0.486;2023-09-18T21:42:56;11.93;;;1.33;;
71423;SDS011;59240;51.370;-0.486;2023-09-18T21:47:53;2.63;;;1.00;;
71423;SDS011;59240;51.370;-0.486;2023-09-18T21:52:51;7.57;;;1.45;;
71423;SDS011;59240;51.370;-0.486;2023-09-18T21:57:50;4.22;;;0.95;;
71423;SDS011;59240;51.370;-0.486;2023-09-18T22:02:46;6.07;;;0.93;;
71423;SDS011;59240;51.370;-0.486;2023-09-18T22:07:43;7.68;;;1.10;;
71423;SDS011;59240;51.370;-0.486;2023-09-18T22:12:40;2.80;;;1.15;;
71423;SDS011;59240;51.370;-0.486;2023-09-18T22:17:38;4.07;;;1.17;;
71423;SDS011;59240;51.370;-0.486;2023-09-18T22:22:37;5.32;;;0.85;;
71423;SDS011;59240;51.370;-0.486;2023-09-18T22:27:35;3.30;;;1.27;;
71423;SDS011;59240;51.370;-0.486;2023-09-18T22:32:34;5.50;;;1.45;;
71423;SDS011;59240;51.370;-0.486;2023-09-18T22:37:32;7.10;;;1.00;;
71423;SDS011;59240;51.370;-0.486;2023-09-18T22:58:37;6.20;;;1.05;;
71423;SDS011;59240;51.370;-0.486;2023-09-18T23:03:39;4.80;;;1.20;;
71423;SDS011;59240;51.370;-0.486;2023-09-18T23:08:37;5.40;;;1.02;;
71423;SDS011;59240;51.370;-0.486;2023-09-18T23:13:37;6.45;;;1.05;;
71423;SDS011;59240;51.370;-0.486;2023-09-18T23:18:37;5.30;;;1.15;;
71423;SDS011;59240;51.370;-0.486;2023-09-18T23:23:36;5.53;;;0.82;;
71423;SDS011;59240;51.370;-0.486;2023-09-18T23:28:33;7.80;;;1.13;;
71423;SDS011;59240;51.370;-0.486;2023-09-18T23:33:31;7.15;;;1.00;;
71423;SDS011;59240;51.370;-0.486;2023-09-18T23:38:30;4.95;;;1.05;;
71423;SDS011;59240;51.370;-0.486;2023-09-18T23:43:27;5.55;;;1.33;;
71423;SDS011;59240;51.370;-0.486;2023-09-18T23:48:25;5.32;;;1.02;;
71423;SDS011;59240;51.370;-0.486;2023-09-18T23:53:21;5.53;;;1.20;;
71423;SDS011;59240;51.370;-0.486;2023-09-18T23:58:21;6.28;;;1.40;;
